createdAt,value
2023-04-16T00:00:20.946Z,41.72
2023-04-16T00:02:53.235Z,41.95
2023-04-16T00:05:26.189Z,42.17
2023-04-16T00:07:57.496Z,42.32
2023-04-16T00:10:29.999Z,42.75
2023-04-16T00:13:03.443Z,42.61
2023-04-16T00:15:34.744Z,42.99
2023-04-16T00:18:06.601Z,42.92
2023-04-16T00:20:38.778Z,42.45
2023-04-16T00:23:11.360Z,42.46
2023-04-16T00:25:43.333Z,43.07
2023-04-16T00:28:14.528Z,42.17
2023-04-16T00:30:46.260Z,42.78
2023-04-16T00:33:19.838Z,42.19
2023-04-16T00:35:51.896Z,42.55
2023-04-16T00:38:25.264Z,42.67
2023-04-16T00:40:56.546Z,42.11
2023-04-16T00:43:30.081Z,42.47
2023-04-16T00:46:02.767Z,42.30
2023-04-16T00:48:34.924Z,42.05
2023-04-16T00:51:11.651Z,42.02
2023-04-16T00:53:44.412Z,41.98
2023-04-16T00:56:17.872Z,41.94
2023-04-16T00:58:50.302Z,42.61
2023-04-16T01:01:21.673Z,42.84
2023-04-16T01:03:54.559Z,42.66
2023-04-16T01:06:27.143Z,42.49
2023-04-16T01:08:59.898Z,42.91
2023-04-16T01:11:32.647Z,43.51
2023-04-16T01:14:03.747Z,44.09
2023-04-16T01:16:35.455Z,43.15
2023-04-16T01:19:07.847Z,42.51
2023-04-16T01:21:39.953Z,42.97
2023-04-16T01:24:11.854Z,43.52
2023-04-16T01:26:44.565Z,43.42
2023-04-16T01:29:14.998Z,43.48
2023-04-16T01:31:48.362Z,43.15
2023-04-16T01:34:31.796Z,43.18
2023-04-16T01:37:03.671Z,43.58
2023-04-16T01:39:34.793Z,42.93
2023-04-16T01:42:07.533Z,42.95
2023-04-16T01:44:38.719Z,43.25
2023-04-16T01:47:10.445Z,43.19
2023-04-16T01:49:42.437Z,43.77
2023-04-16T01:52:15.144Z,42.63
2023-04-16T01:54:46.805Z,41.28
2023-04-16T01:57:19.569Z,40.84
2023-04-16T01:59:51.497Z,41.57
2023-04-16T02:02:28.185Z,40.49
2023-04-16T02:05:00.817Z,40.18
2023-04-16T02:07:34.409Z,40.57
2023-04-16T02:10:07.016Z,40.99
2023-04-16T02:12:38.978Z,40.27
2023-04-16T02:15:11.719Z,40.34
2023-04-16T02:17:44.076Z,39.78
2023-04-16T02:20:18.487Z,39.91
2023-04-16T02:22:58.552Z,39.76
2023-04-16T02:25:31.593Z,39.09
2023-04-16T02:28:03.677Z,39.55
2023-04-16T02:30:41.711Z,39.66
2023-04-16T02:33:15.480Z,39.64
2023-04-16T02:35:59.712Z,40.06
2023-04-16T02:38:30.852Z,39.63
2023-04-16T02:41:03.383Z,39.05
2023-04-16T02:43:36.780Z,39.63
2023-04-16T02:46:08.853Z,39.58
2023-04-16T02:48:39.030Z,38.86
2023-04-16T02:51:07.996Z,39.72
2023-04-16T02:53:37.754Z,39.20
2023-04-16T02:56:07.488Z,38.88
2023-04-16T02:58:37.258Z,38.88
2023-04-16T03:01:06.916Z,38.62
2023-04-16T03:03:35.950Z,38.41
2023-04-16T03:06:05.145Z,37.82
2023-04-16T03:08:34.672Z,37.40
2023-04-16T03:11:03.833Z,38.48
2023-04-16T03:13:33.330Z,37.58
2023-04-16T03:16:02.735Z,37.91
2023-04-16T03:18:31.723Z,37.52
2023-04-16T03:21:00.969Z,38.37
2023-04-16T03:23:30.080Z,37.81
2023-04-16T03:25:59.531Z,37.82
2023-04-16T03:28:29.156Z,36.64
2023-04-16T03:30:58.408Z,36.55
2023-04-16T03:33:28.202Z,37.12
2023-04-16T03:35:58.702Z,37.15
2023-04-16T03:38:31.764Z,37.10
2023-04-16T03:41:01.369Z,37.15
2023-04-16T03:43:32.574Z,36.18
2023-04-16T03:46:01.922Z,35.86
2023-04-16T03:48:31.023Z,35.49
2023-04-16T03:51:00.857Z,35.42
2023-04-16T03:53:30.907Z,35.75
2023-04-16T03:56:00.495Z,34.99
2023-04-16T03:58:29.871Z,34.39
2023-04-16T04:00:59.459Z,34.52
2023-04-16T04:03:29.145Z,34.03
2023-04-16T04:05:58.818Z,33.41
2023-04-16T04:08:30.920Z,33.08
2023-04-16T04:11:00.262Z,32.12
2023-04-16T04:13:30.033Z,32.43
2023-04-16T04:16:00.347Z,32.82
2023-04-16T04:18:30.390Z,33.03
2023-04-16T04:21:01.540Z,34.13
2023-04-16T04:23:32.202Z,32.58
2023-04-16T04:26:04.831Z,32.33
2023-04-16T04:28:34.819Z,32.41
2023-04-16T04:31:04.264Z,33.03
2023-04-16T04:33:33.485Z,33.16
2023-04-16T04:36:02.825Z,32.91
2023-04-16T04:38:33.456Z,31.97
2023-04-16T04:41:02.465Z,31.98
2023-04-16T04:43:35.573Z,31.72
2023-04-16T04:46:04.885Z,32.84
2023-04-16T04:48:34.689Z,32.50
2023-04-16T04:51:05.511Z,31.97
2023-04-16T04:53:35.120Z,31.20
2023-04-16T04:56:12.248Z,31.65
2023-04-16T04:58:43.411Z,32.41
2023-04-16T05:01:12.670Z,31.77
2023-04-16T05:03:42.108Z,30.83
2023-04-16T05:06:11.833Z,30.86
2023-04-16T05:08:40.781Z,29.16
2023-04-16T05:11:09.994Z,29.24
2023-04-16T05:13:39.116Z,29.32
2023-04-16T05:16:08.657Z,29.22
2023-04-16T05:18:38.389Z,29.22
2023-04-16T05:21:07.395Z,30.26
2023-04-16T05:23:36.416Z,29.94
2023-04-16T05:26:06.163Z,28.91
2023-04-16T05:28:35.495Z,28.82
2023-04-16T05:31:04.709Z,28.51
2023-04-16T05:33:34.711Z,28.79
2023-04-16T05:36:03.638Z,29.14
2023-04-16T05:38:33.042Z,27.64
2023-04-16T05:41:02.180Z,28.61
2023-04-16T05:43:31.581Z,27.70
2023-04-16T05:46:00.825Z,28.00
2023-04-16T05:48:29.898Z,28.50
2023-04-16T05:50:59.666Z,28.08
2023-04-16T05:53:28.871Z,29.19
2023-04-16T05:55:57.977Z,28.38
2023-04-16T05:58:27.306Z,28.20
2023-04-16T06:00:56.919Z,28.00
2023-04-16T06:03:26.109Z,27.53
2023-04-16T06:05:55.648Z,27.64
2023-04-16T06:08:25.426Z,28.49
2023-04-16T06:10:54.879Z,27.95
2023-04-16T06:13:24.045Z,27.74
2023-04-16T06:15:54.031Z,26.77
2023-04-16T06:22:45.992Z,25.12
2023-04-16T06:25:16.819Z,25.78
2023-04-16T06:27:47.732Z,26.66
2023-04-16T06:30:17.776Z,26.73
2023-04-16T06:32:47.659Z,25.87
2023-04-16T06:35:17.030Z,26.82
2023-04-16T06:37:46.817Z,25.79
2023-04-16T06:40:17.656Z,26.72
2023-04-16T06:42:46.942Z,26.07
2023-04-16T06:45:16.685Z,25.58
2023-04-16T06:47:45.755Z,25.76
2023-04-16T06:50:14.968Z,26.14
2023-04-16T06:52:44.224Z,25.61
2023-04-16T06:55:14.470Z,26.24
2023-04-16T06:57:43.798Z,25.19
2023-04-16T07:00:13.514Z,24.54
2023-04-16T07:02:42.985Z,24.91
2023-04-16T07:05:12.432Z,24.51
2023-04-16T07:07:41.548Z,24.23
2023-04-16T07:10:11.366Z,25.29
2023-04-16T07:12:40.680Z,26.01
2023-04-16T07:19:34.100Z,24.50
2023-04-16T07:22:03.874Z,23.68
2023-04-16T07:24:33.589Z,23.78
2023-04-16T07:27:03.119Z,24.41
2023-04-16T07:29:32.091Z,24.07
2023-04-16T07:32:02.069Z,25.65
2023-04-16T07:34:31.760Z,25.61
2023-04-16T07:37:00.670Z,25.03
2023-04-16T07:39:32.679Z,24.17
2023-04-16T07:42:02.012Z,23.63
2023-04-16T07:44:31.748Z,23.24
2023-04-16T07:47:01.619Z,23.41
2023-04-16T07:49:32.202Z,23.41
2023-04-16T07:52:01.430Z,22.53
2023-04-16T07:58:52.786Z,24.16
2023-04-16T08:01:23.212Z,21.69
2023-04-16T08:03:53.130Z,22.92
2023-04-16T08:06:22.144Z,22.87
2023-04-16T08:08:51.137Z,22.66
2023-04-16T08:11:20.272Z,22.67
2023-04-16T08:13:49.333Z,22.70
2023-04-16T08:16:18.452Z,22.52
2023-04-16T08:18:47.833Z,22.45
2023-04-16T08:21:17.096Z,21.81
2023-04-16T08:23:46.463Z,22.18
2023-04-16T08:26:15.883Z,20.58
2023-04-16T08:28:44.912Z,20.61
2023-04-16T08:31:14.183Z,19.46
2023-04-16T08:33:43.349Z,20.08
2023-04-16T08:36:12.614Z,20.62
2023-04-16T08:38:41.665Z,19.46
2023-04-16T08:41:14.096Z,19.23
2023-04-16T08:43:46.710Z,20.58
2023-04-16T08:46:18.752Z,20.60
2023-04-16T08:48:54.474Z,20.21
2023-04-16T08:51:25.332Z,21.05
2023-04-16T08:54:01.112Z,20.82
2023-04-16T08:56:32.028Z,20.76
2023-04-16T08:59:06.117Z,20.70
2023-04-16T09:01:36.586Z,20.34
2023-04-16T09:04:08.670Z,19.66
2023-04-16T09:06:38.951Z,19.69
2023-04-16T09:09:09.359Z,19.85
2023-04-16T09:11:40.655Z,19.98
2023-04-16T09:14:12.901Z,19.95
2023-04-16T09:16:43.081Z,19.46
2023-04-16T09:19:12.662Z,19.61
2023-04-16T09:21:43.238Z,19.70
2023-04-16T09:24:12.951Z,20.38
2023-04-16T09:26:46.550Z,19.71
2023-04-16T09:29:38.520Z,20.38
2023-04-16T09:32:12.806Z,20.15
2023-04-16T09:35:00.138Z,19.85
2023-04-16T09:37:31.262Z,19.71
2023-04-16T09:40:03.069Z,19.55
2023-04-16T09:42:37.941Z,19.95
2023-04-16T09:45:07.767Z,20.17
2023-04-16T09:47:44.820Z,19.68
2023-04-16T09:50:21.829Z,19.85
2023-04-16T09:52:52.323Z,19.80
2023-04-16T09:55:29.028Z,19.71
2023-04-16T09:58:02.576Z,19.77
2023-04-16T10:00:35.052Z,20.05
2023-04-16T10:03:11.810Z,20.95
2023-04-16T10:05:41.099Z,20.17
2023-04-16T10:08:16.002Z,20.30
2023-04-16T10:10:45.817Z,20.53
2023-04-16T10:13:18.455Z,21.22
2023-04-16T10:15:48.130Z,20.66
2023-04-16T10:22:39.593Z,20.69
2023-04-16T10:25:09.991Z,21.04
2023-04-16T10:27:39.964Z,21.33
2023-04-16T10:30:10.691Z,21.70
2023-04-16T10:32:40.610Z,22.03
2023-04-16T10:35:10.113Z,20.81
2023-04-16T10:37:42.424Z,21.13
2023-04-16T10:40:27.583Z,20.59
2023-04-16T10:43:00.843Z,21.57
2023-04-16T10:45:56.485Z,20.87
2023-04-16T10:48:30.924Z,21.44
2023-04-16T10:51:07.813Z,20.66
2023-04-16T10:53:39.028Z,20.34
2023-04-16T10:56:07.999Z,20.47
2023-04-16T10:58:38.329Z,21.35
2023-04-16T11:01:14.979Z,21.30
2023-04-16T11:03:50.864Z,21.29
2023-04-16T11:06:27.130Z,21.84
2023-04-16T11:08:56.754Z,21.85
2023-04-16T11:11:25.768Z,22.39
2023-04-16T11:13:58.117Z,22.02
2023-04-16T11:16:27.624Z,22.11
2023-04-16T11:18:57.981Z,21.81
2023-04-16T11:21:28.233Z,21.05
2023-04-16T11:23:59.900Z,21.81
2023-04-16T11:26:32.181Z,21.92
2023-04-16T11:33:28.394Z,22.87
2023-04-16T11:36:01.850Z,23.50
2023-04-16T11:38:44.196Z,22.56
2023-04-16T11:41:20.524Z,22.39
2023-04-16T11:43:49.655Z,22.39
2023-04-16T11:46:27.277Z,22.95
2023-04-16T11:48:57.289Z,23.14
2023-04-16T11:51:26.605Z,23.63
2023-04-16T11:53:57.138Z,24.05
2023-04-16T11:56:31.904Z,23.19
2023-04-16T11:59:17.548Z,23.02
2023-04-16T12:01:52.872Z,22.57
2023-04-16T12:04:26.831Z,22.83
2023-04-16T12:07:08.772Z,23.68
2023-04-16T12:09:40.798Z,25.20
2023-04-16T12:12:32.543Z,26.17
2023-04-16T12:15:06.740Z,26.63
2023-04-16T12:17:37.757Z,26.75
2023-04-16T12:20:12.869Z,25.98
2023-04-16T12:22:46.103Z,25.24
2023-04-16T12:25:26.170Z,25.23
2023-04-16T12:27:57.565Z,24.71
2023-04-16T12:30:27.860Z,24.74
2023-04-16T12:37:18.818Z,25.54
2023-04-16T12:39:48.177Z,25.87
2023-04-16T12:42:17.459Z,26.53
2023-04-16T12:44:46.702Z,26.85
2023-04-16T12:47:16.103Z,26.69
2023-04-16T12:49:45.805Z,27.45
2023-04-16T12:52:14.868Z,27.70
2023-04-16T12:54:44.196Z,28.07
2023-04-16T12:57:13.549Z,28.06
2023-04-16T12:59:42.832Z,28.42
2023-04-16T13:02:12.222Z,28.61
2023-04-16T13:04:41.442Z,28.91
2023-04-16T13:07:10.803Z,29.00
2023-04-16T13:09:40.604Z,29.22
2023-04-16T13:12:09.823Z,29.07
2023-04-16T13:14:40.112Z,29.65
2023-04-16T13:17:09.358Z,29.72
2023-04-16T13:19:38.457Z,29.62
2023-04-16T13:22:07.868Z,29.87
2023-04-16T13:24:36.927Z,30.10
2023-04-16T13:27:06.904Z,30.79
2023-04-16T13:29:39.452Z,30.55
2023-04-16T13:32:08.804Z,30.37
2023-04-16T13:34:38.148Z,31.09
2023-04-16T13:37:08.048Z,31.43
2023-04-16T13:39:37.121Z,31.85
2023-04-16T13:42:06.619Z,31.63
2023-04-16T13:44:35.812Z,31.53
2023-04-16T13:47:05.289Z,32.19
2023-04-16T13:49:36.341Z,32.59
2023-04-16T13:52:05.911Z,32.90
2023-04-16T13:54:34.796Z,32.51
2023-04-16T13:57:04.131Z,33.13
2023-04-16T13:59:33.665Z,32.65
2023-04-16T14:02:03.369Z,32.33
2023-04-16T14:04:32.673Z,31.82
2023-04-16T14:07:02.272Z,32.07
2023-04-16T14:09:31.689Z,31.46
2023-04-16T14:12:00.975Z,30.57
2023-04-16T14:14:30.246Z,30.68
2023-04-16T14:17:04.261Z,30.80
2023-04-16T14:19:33.618Z,30.49
2023-04-16T14:22:02.667Z,30.44
2023-04-16T14:24:31.834Z,30.30
2023-04-16T14:27:01.030Z,29.57
2023-04-16T14:29:30.322Z,30.10
2023-04-16T14:31:59.337Z,30.18
2023-04-16T14:34:28.800Z,30.59
2023-04-16T14:36:57.974Z,30.42
2023-04-16T14:39:27.422Z,30.48
2023-04-16T14:41:56.732Z,31.29
2023-04-16T14:44:25.686Z,30.47
2023-04-16T14:46:55.005Z,30.72
2023-04-16T14:49:24.149Z,30.68
2023-04-16T14:51:53.604Z,30.25
2023-04-16T14:54:23.242Z,31.10
2023-04-16T14:56:52.375Z,30.72
2023-04-16T14:59:21.504Z,30.79
2023-04-16T15:01:50.530Z,30.53
2023-04-16T15:04:20.109Z,31.12
2023-04-16T15:06:50.317Z,30.97
2023-04-16T15:09:19.410Z,31.19
2023-04-16T15:11:48.537Z,31.86
2023-04-16T15:14:17.877Z,31.06
2023-04-16T15:16:48.027Z,30.89
2023-04-16T15:19:17.591Z,31.31
2023-04-16T15:21:48.739Z,31.07
2023-04-16T15:24:18.254Z,30.90
2023-04-16T15:26:47.325Z,31.37
2023-04-16T15:29:16.751Z,31.09
2023-04-16T15:31:46.109Z,30.04
2023-04-16T15:34:15.065Z,30.37
2023-04-16T15:36:44.207Z,30.11
2023-04-16T15:39:13.559Z,30.20
2023-04-16T15:41:57.523Z,29.82
2023-04-16T15:44:31.283Z,29.18
2023-04-16T15:47:01.427Z,29.12
2023-04-16T15:49:30.840Z,29.40
2023-04-16T15:51:59.861Z,29.79
2023-04-16T15:54:28.921Z,29.46
2023-04-16T15:56:59.856Z,29.84
2023-04-16T15:59:29.067Z,30.24
2023-04-16T16:01:58.300Z,30.05
2023-04-16T16:04:29.405Z,30.16
2023-04-16T16:06:58.856Z,30.98
2023-04-16T16:09:28.868Z,31.25
2023-04-16T16:12:00.826Z,30.72
2023-04-16T16:14:30.069Z,30.24
2023-04-16T16:16:59.203Z,30.47
2023-04-16T16:19:28.456Z,30.07
2023-04-16T16:21:57.653Z,30.57
2023-04-16T16:24:27.760Z,30.45
2023-04-16T16:26:57.798Z,30.49
2023-04-16T16:29:26.949Z,31.53
2023-04-16T16:31:56.293Z,32.49
2023-04-16T16:34:25.424Z,33.14
2023-04-16T16:36:54.642Z,33.38
2023-04-16T16:39:25.461Z,33.63
2023-04-16T16:41:54.879Z,33.90
2023-04-16T16:44:24.272Z,33.66
2023-04-16T16:46:53.208Z,34.37
2023-04-16T16:49:22.494Z,33.85
2023-04-16T16:51:51.934Z,35.42
2023-04-16T16:54:21.043Z,34.58
2023-04-16T16:56:52.652Z,34.34
2023-04-16T16:59:21.815Z,34.15
2023-04-16T17:01:51.106Z,34.41
2023-04-16T17:04:20.516Z,34.48
2023-04-16T17:06:49.884Z,34.79
2023-04-16T17:09:19.232Z,34.99
2023-04-16T17:11:48.396Z,34.22
2023-04-16T17:14:17.586Z,34.13
2023-04-16T17:16:50.933Z,34.91
2023-04-16T17:19:20.271Z,34.18
2023-04-16T17:21:49.410Z,34.12
2023-04-16T17:24:19.230Z,33.79
2023-04-16T17:26:49.117Z,34.33
2023-04-16T17:29:18.268Z,33.01
2023-04-16T17:31:47.475Z,33.78
2023-04-16T17:34:16.857Z,34.22
2023-04-16T17:36:47.876Z,34.48
2023-04-16T17:39:17.351Z,34.26
2023-04-16T17:41:46.698Z,34.08
2023-04-16T17:44:16.240Z,34.59
2023-04-16T17:46:45.814Z,34.11
2023-04-16T17:49:14.866Z,33.83
2023-04-16T17:51:45.551Z,33.74
2023-04-16T17:54:14.990Z,33.39
2023-04-16T17:56:43.867Z,34.57
2023-04-16T17:59:13.220Z,34.51
2023-04-16T18:01:42.775Z,34.55
2023-04-16T18:04:12.357Z,34.80
2023-04-16T18:06:42.286Z,35.32
2023-04-16T18:09:11.216Z,35.72
2023-04-16T18:11:40.441Z,35.42
2023-04-16T18:14:10.985Z,35.83
2023-04-16T18:16:40.615Z,36.44
2023-04-16T18:19:09.635Z,36.24
2023-04-16T18:21:38.821Z,36.31
2023-04-16T18:24:08.605Z,36.35
2023-04-16T18:26:37.788Z,35.82
2023-04-16T18:29:07.170Z,35.23
2023-04-16T18:31:36.631Z,35.84
2023-04-16T18:34:06.445Z,35.95
2023-04-16T18:36:35.987Z,36.13
2023-04-16T18:39:05.109Z,35.84
2023-04-16T18:41:34.223Z,36.00
2023-04-16T18:44:03.557Z,36.37
2023-04-16T18:46:32.889Z,36.38
2023-04-16T18:49:02.374Z,36.27
2023-04-16T18:51:31.845Z,36.54
2023-04-16T18:54:01.527Z,36.83
2023-04-16T18:56:33.350Z,36.64
2023-04-16T18:59:03.411Z,36.95
2023-04-16T19:01:32.493Z,38.42
2023-04-16T19:04:02.699Z,38.29
2023-04-16T19:06:32.895Z,38.40
2023-04-16T19:09:02.411Z,38.20
2023-04-16T19:11:31.634Z,37.38
2023-04-16T19:14:03.184Z,37.47
2023-04-16T19:16:32.959Z,37.14
2023-04-16T19:19:02.382Z,37.53
2023-04-16T19:21:31.913Z,36.94
2023-04-16T19:24:01.210Z,37.12
2023-04-16T19:26:30.252Z,38.51
2023-04-16T19:28:59.469Z,38.67
2023-04-16T19:31:28.980Z,38.64
2023-04-16T19:33:58.073Z,37.85
2023-04-16T19:36:27.452Z,37.13
2023-04-16T19:38:56.789Z,37.09
2023-04-16T19:41:25.886Z,39.73
2023-04-16T19:43:56.813Z,39.38
2023-04-16T19:46:26.055Z,39.06
2023-04-16T19:48:54.965Z,39.10
2023-04-16T19:51:24.761Z,39.50
2023-04-16T19:53:54.690Z,39.82
2023-04-16T19:56:23.839Z,39.62
2023-04-16T19:58:53.211Z,39.12
2023-04-16T20:01:23.415Z,39.26
2023-04-16T20:03:53.177Z,40.50
2023-04-16T20:06:23.501Z,40.53
2023-04-16T20:08:53.952Z,39.62
2023-04-16T20:11:23.756Z,39.11
2023-04-16T20:13:54.221Z,39.71
2023-04-16T20:16:24.878Z,39.15
2023-04-16T20:18:58.470Z,39.15
2023-04-16T20:21:29.654Z,39.59
2023-04-16T20:24:03.256Z,40.09
2023-04-16T20:26:35.184Z,39.91
2023-04-16T20:29:05.155Z,39.63
2023-04-16T20:31:37.785Z,39.49
2023-04-16T20:34:09.917Z,41.67
2023-04-16T20:36:41.438Z,42.57
2023-04-16T20:39:13.554Z,42.33
2023-04-16T20:41:46.770Z,42.18
2023-04-16T20:44:21.048Z,42.15
2023-04-16T20:46:56.469Z,40.85
2023-04-16T20:49:29.710Z,39.50
2023-04-16T20:52:01.770Z,39.57
2023-04-16T20:54:33.658Z,39.08
2023-04-16T20:57:05.378Z,39.09
2023-04-16T20:59:40.002Z,38.98
2023-04-16T21:02:11.797Z,38.94
2023-04-16T21:04:45.010Z,39.30
2023-04-16T21:07:17.421Z,39.69
2023-04-16T21:09:49.945Z,39.57
2023-04-16T21:12:22.800Z,39.93
2023-04-16T21:14:54.937Z,39.75
2023-04-16T21:17:27.550Z,39.83
2023-04-16T21:20:00.703Z,39.91
2023-04-16T21:22:32.820Z,40.17
2023-04-16T21:25:04.849Z,41.02
2023-04-16T21:27:36.573Z,41.95
2023-04-16T21:30:09.344Z,42.08
2023-04-16T21:32:42.151Z,42.66
2023-04-16T21:35:15.322Z,42.00
2023-04-16T21:37:46.591Z,42.15
2023-04-16T21:40:19.490Z,42.88
2023-04-16T21:42:51.392Z,43.56
2023-04-16T21:45:23.263Z,43.85
2023-04-16T21:47:57.121Z,43.29
2023-04-16T21:50:28.778Z,43.44
2023-04-16T21:53:00.776Z,43.46
2023-04-16T21:55:33.283Z,44.49
2023-04-16T21:58:06.140Z,44.71
2023-04-16T22:00:37.488Z,44.27
2023-04-16T22:03:11.597Z,44.47
2023-04-16T22:05:45.114Z,44.64
2023-04-16T22:08:24.705Z,45.03
2023-04-16T22:11:02.087Z,45.97
2023-04-16T22:13:38.910Z,46.72
2023-04-16T22:16:11.769Z,46.11
2023-04-16T22:18:45.095Z,46.66
2023-04-16T22:21:17.076Z,47.85
2023-04-16T22:23:49.188Z,48.39
2023-04-16T22:26:21.717Z,47.84
2023-04-16T22:28:53.786Z,47.30
2023-04-16T22:31:26.474Z,46.90
2023-04-16T22:34:00.940Z,46.86
2023-04-16T22:36:35.275Z,46.64
2023-04-16T22:39:11.635Z,46.76
2023-04-16T22:41:43.413Z,47.07
2023-04-16T22:44:15.288Z,47.45
2023-04-16T22:46:48.814Z,47.04
2023-04-16T22:49:20.055Z,46.48
2023-04-16T22:51:52.581Z,46.99
2023-04-16T22:54:25.405Z,47.20
2023-04-16T22:56:59.031Z,46.87
2023-04-16T22:59:31.848Z,46.90
2023-04-16T23:02:03.818Z,46.00
2023-04-16T23:04:37.029Z,46.22
2023-04-16T23:07:09.922Z,47.77
2023-04-16T23:09:42.694Z,47.23
2023-04-16T23:12:17.691Z,46.75
2023-04-16T23:14:50.405Z,47.40
2023-04-16T23:17:21.616Z,45.97
2023-04-16T23:19:54.410Z,46.32
2023-04-16T23:22:27.043Z,45.93
2023-04-16T23:25:00.298Z,45.85
2023-04-16T23:27:33.661Z,45.66
2023-04-16T23:30:07.634Z,45.20
2023-04-16T23:32:39.712Z,45.50
2023-04-16T23:35:12.441Z,44.76
2023-04-16T23:37:44.962Z,45.23
2023-04-16T23:40:18.694Z,45.23
2023-04-16T23:42:50.679Z,44.88
2023-04-16T23:45:23.345Z,44.88
2023-04-16T23:47:55.352Z,45.74
2023-04-16T23:50:28.824Z,46.01
2023-04-16T23:53:00.478Z,45.89
2023-04-16T23:55:34.094Z,45.29
2023-04-16T23:58:06.094Z,44.97
